createdAt,value
2023-02-01T00:01:42.598Z,3.47
2023-02-01T00:06:45.151Z,3.92
2023-02-01T00:11:49.464Z,2.27
2023-02-01T00:16:57.105Z,3.47
2023-02-01T00:21:59.584Z,2.65
2023-02-01T00:27:02.810Z,2.97
2023-02-01T00:32:06.839Z,2.97
2023-02-01T00:37:09.707Z,3.33
2023-02-01T00:42:12.342Z,2.97
2023-02-01T00:47:14.827Z,3.42
2023-02-01T00:52:17.250Z,4.10
2023-02-01T00:57:19.638Z,6.65
2023-02-01T01:02:23.538Z,10.47
2023-02-01T01:07:26.255Z,11.27
2023-02-01T01:12:28.911Z,10.10
2023-02-01T01:17:32.936Z,5.90
2023-02-01T01:22:35.355Z,5.22
2023-02-01T01:27:37.692Z,5.38
2023-02-01T01:32:40.404Z,4.57
2023-02-01T01:37:42.849Z,4.30
2023-02-01T01:42:46.642Z,3.50
2023-02-01T01:48:23.675Z,3.20
2023-02-01T01:53:35.269Z,3.85
2023-02-01T01:58:38.198Z,4.35
2023-02-01T02:03:44.444Z,4.53
2023-02-01T02:08:47.506Z,4.50
2023-02-01T02:13:53.559Z,3.40
2023-02-01T02:19:08.440Z,4.80
2023-02-01T02:24:36.110Z,5.10
2023-02-01T02:30:02.642Z,3.72
2023-02-01T02:35:35.515Z,4.75
2023-02-01T02:41:02.100Z,4.03
2023-02-01T02:46:35.411Z,7.40
2023-02-01T02:52:06.205Z,4.97
2023-02-01T02:57:30.882Z,4.13
2023-02-01T03:02:53.870Z,4.50
2023-02-01T03:08:03.538Z,3.00
2023-02-01T03:13:09.556Z,3.95
2023-02-01T03:18:17.455Z,4.20
2023-02-01T03:23:24.552Z,3.22
2023-02-01T03:28:29.768Z,3.58
2023-02-01T03:33:34.710Z,3.72
2023-02-01T03:38:42.993Z,3.20
2023-02-01T03:44:27.678Z,3.25
2023-02-01T03:49:37.229Z,2.67
2023-02-01T03:54:41.879Z,3.30
2023-02-01T03:59:46.208Z,2.97
2023-02-01T04:04:48.785Z,3.53
2023-02-01T04:09:53.994Z,4.15
2023-02-01T04:14:56.311Z,3.67
2023-02-01T04:19:59.913Z,4.45
2023-02-01T04:30:12.315Z,3.90
2023-02-01T04:35:15.937Z,3.90
2023-02-01T04:40:18.324Z,5.32
2023-02-01T04:45:20.664Z,5.22
2023-02-01T04:50:25.045Z,3.80
2023-02-01T04:55:27.513Z,3.45
2023-02-01T05:00:29.887Z,3.75
2023-02-01T05:05:33.621Z,5.57
2023-02-01T05:15:38.390Z,3.80
2023-02-01T05:20:40.821Z,4.30
2023-02-01T05:25:43.386Z,3.58
2023-02-01T05:30:45.664Z,4.38
2023-02-01T05:35:49.268Z,3.63
2023-02-01T05:40:52.633Z,3.53
2023-02-01T05:45:55.995Z,4.57
2023-02-01T05:50:58.519Z,4.13
2023-02-01T05:56:02.663Z,4.63
2023-02-01T06:01:05.573Z,5.85
2023-02-01T06:06:08.102Z,6.18
2023-02-01T06:11:13.375Z,4.93
2023-02-01T06:16:16.661Z,3.67
2023-02-01T06:21:24.810Z,4.60
2023-02-01T06:26:29.796Z,4.13
2023-02-01T06:31:34.088Z,4.18
2023-02-01T06:36:36.976Z,4.28
2023-02-01T06:41:42.773Z,4.37
2023-02-01T06:46:48.135Z,4.85
2023-02-01T06:51:50.819Z,5.45
2023-02-01T06:56:57.668Z,5.65
2023-02-01T07:02:02.009Z,5.80
2023-02-01T07:07:05.181Z,5.15
2023-02-01T07:12:07.928Z,6.25
2023-02-01T07:17:14.608Z,6.50
2023-02-01T07:22:18.054Z,6.90
2023-02-01T07:27:21.145Z,6.22
2023-02-01T07:32:25.003Z,5.00
2023-02-01T07:37:28.269Z,6.18
2023-02-01T07:42:30.627Z,5.97
2023-02-01T07:47:32.941Z,6.10
2023-02-01T07:52:35.487Z,5.22
2023-02-01T07:57:37.909Z,4.18
2023-02-01T08:02:40.285Z,5.25
2023-02-01T08:07:42.805Z,4.80
2023-02-01T08:12:48.840Z,4.28
2023-02-01T08:17:51.859Z,5.55
2023-02-01T08:22:54.837Z,4.38
2023-02-01T08:27:57.737Z,6.03
2023-02-01T08:33:00.159Z,6.88
2023-02-01T08:38:05.651Z,5.50
2023-02-01T08:43:08.621Z,5.72
2023-02-01T08:48:11.062Z,6.07
2023-02-01T08:53:15.230Z,5.40
2023-02-01T08:58:19.940Z,5.60
2023-02-01T09:03:22.416Z,7.40
2023-02-01T09:08:25.495Z,11.20
2023-02-01T09:13:28.516Z,12.23
2023-02-01T09:18:30.928Z,10.32
2023-02-01T09:23:35.228Z,7.28
2023-02-01T09:28:37.947Z,6.50
2023-02-01T09:33:41.417Z,6.28
2023-02-01T09:38:52.858Z,6.28
2023-02-01T09:44:04.555Z,6.60
2023-02-01T09:49:15.220Z,6.13
2023-02-01T09:54:20.862Z,7.43
2023-02-01T09:59:47.892Z,6.53
2023-02-01T10:04:50.982Z,6.43
2023-02-01T10:10:02.925Z,10.67
2023-02-01T10:15:42.846Z,8.80
2023-02-01T10:20:54.084Z,7.10
2023-02-01T10:26:01.260Z,10.82
2023-02-01T10:31:04.461Z,7.93
2023-02-01T10:36:42.183Z,5.10
2023-02-01T10:41:45.846Z,4.32
2023-02-01T10:51:55.750Z,4.30
2023-02-01T10:56:59.894Z,4.47
2023-02-01T11:02:17.170Z,4.30
2023-02-01T11:07:25.940Z,14.75
2023-02-01T11:12:35.616Z,8.27
2023-02-01T11:17:42.069Z,6.22
2023-02-01T11:22:49.361Z,24.27
2023-02-01T11:27:55.529Z,13.00
2023-02-01T11:32:58.967Z,6.38
2023-02-01T11:38:01.392Z,6.40
2023-02-01T11:43:19.133Z,6.80
2023-02-01T11:48:26.925Z,8.32
2023-02-01T11:54:00.643Z,11.23
2023-02-01T11:59:27.319Z,10.13
2023-02-01T12:04:41.881Z,6.65
2023-02-01T12:10:06.781Z,9.10
2023-02-01T12:15:56.779Z,7.05
2023-02-01T12:21:07.123Z,8.00
2023-02-01T12:26:31.478Z,9.55
2023-02-01T12:31:47.361Z,14.27
2023-02-01T12:37:10.319Z,14.35
2023-02-01T12:42:18.388Z,18.55
2023-02-01T12:47:34.192Z,30.23
2023-02-01T12:52:41.304Z,33.33
2023-02-01T12:58:19.341Z,20.40
2023-02-01T13:09:26.799Z,17.10
2023-02-01T13:14:47.964Z,18.85
2023-02-01T13:20:13.655Z,21.23
2023-02-01T13:25:42.585Z,21.75
2023-02-01T13:30:59.990Z,15.40
2023-02-01T13:36:16.377Z,11.88
2023-02-01T13:41:34.471Z,11.43
2023-02-01T13:46:46.503Z,11.07
2023-02-01T13:51:51.854Z,13.68
2023-02-01T13:56:54.504Z,7.85
2023-02-01T14:01:56.925Z,7.18
2023-02-01T14:06:59.609Z,12.13
2023-02-01T14:12:40.253Z,13.63
2023-02-01T14:17:42.767Z,11.25
2023-02-01T14:22:45.857Z,9.70
2023-02-01T14:27:48.205Z,11.43
2023-02-01T14:32:50.982Z,9.65
2023-02-01T14:38:13.333Z,12.47
2023-02-01T14:43:17.110Z,10.23
2023-02-01T14:48:35.501Z,8.65
2023-02-01T14:53:38.656Z,12.63
2023-02-01T14:58:45.217Z,14.45
2023-02-01T15:03:56.626Z,13.10
2023-02-01T15:09:07.511Z,11.65
2023-02-01T15:14:15.348Z,14.38
2023-02-01T15:19:17.655Z,23.05
2023-02-01T15:24:31.079Z,28.80
2023-02-01T15:29:34.548Z,26.77
2023-02-01T15:34:49.018Z,35.67
2023-02-01T15:40:25.248Z,27.65
2023-02-01T15:45:29.969Z,24.55
2023-02-01T15:50:33.220Z,16.45
2023-02-01T15:55:43.646Z,11.10
2023-02-01T16:01:00.271Z,16.52
2023-02-01T16:06:06.363Z,13.75
2023-02-01T16:11:08.690Z,12.70
2023-02-01T16:16:15.084Z,14.95
2023-02-01T16:21:17.941Z,25.63
2023-02-01T16:26:20.775Z,26.90
2023-02-01T16:31:28.336Z,26.30
2023-02-01T16:36:30.933Z,24.00
2023-02-01T16:41:34.587Z,24.65
2023-02-01T16:46:47.393Z,21.02
2023-02-01T16:51:51.055Z,18.30
2023-02-01T16:56:54.104Z,23.48
2023-02-01T17:01:56.540Z,40.90
2023-02-01T17:07:03.857Z,53.08
2023-02-01T17:12:06.855Z,38.17
2023-02-01T17:17:09.913Z,24.33
2023-02-01T17:22:14.840Z,20.23
2023-02-01T17:27:18.485Z,20.90
2023-02-01T17:37:28.487Z,13.15
2023-02-01T17:42:31.102Z,14.68
2023-02-01T17:47:34.165Z,15.18
2023-02-01T17:52:36.946Z,13.20
2023-02-01T17:57:42.303Z,14.10
2023-02-01T18:02:46.065Z,12.70
2023-02-01T18:07:49.496Z,10.40
2023-02-01T18:12:52.942Z,11.05
2023-02-01T18:18:01.825Z,10.00
2023-02-01T18:23:24.127Z,14.80
2023-02-01T18:28:26.746Z,12.77
2023-02-01T18:33:29.254Z,12.30
2023-02-01T18:38:33.738Z,15.68
2023-02-01T18:43:38.854Z,13.90
2023-02-01T18:48:42.928Z,16.05
2023-02-01T18:53:45.866Z,17.30
2023-02-01T18:58:48.655Z,13.17
2023-02-01T19:04:08.384Z,11.03
2023-02-01T19:09:17.695Z,12.75
2023-02-01T19:14:24.895Z,17.25
2023-02-01T19:19:30.589Z,18.05
2023-02-01T19:24:33.217Z,18.27
2023-02-01T19:29:37.642Z,17.37
2023-02-01T19:34:41.730Z,11.73
2023-02-01T19:39:50.302Z,7.05
2023-02-01T19:44:57.537Z,5.53
2023-02-01T19:50:01.981Z,3.78
2023-02-01T19:55:31.657Z,3.70
2023-02-01T20:00:36.811Z,3.40
2023-02-01T20:05:40.829Z,3.92
2023-02-01T20:10:49.853Z,4.60
2023-02-01T20:21:18.372Z,3.50
2023-02-01T20:26:25.006Z,10.65
2023-02-01T20:31:34.148Z,5.20
2023-02-01T20:36:36.586Z,3.42
2023-02-01T20:41:43.908Z,4.20
2023-02-01T20:46:48.777Z,4.88
2023-02-01T20:57:44.800Z,6.93
2023-02-01T21:02:48.879Z,6.20
2023-02-01T21:07:51.365Z,5.05
2023-02-01T21:13:04.777Z,5.60
2023-02-01T21:18:09.810Z,6.60
2023-02-01T21:23:12.962Z,4.78
2023-02-01T21:28:15.989Z,4.20
2023-02-01T21:34:08.034Z,3.35
2023-02-01T21:44:51.996Z,4.72
2023-02-01T21:49:57.236Z,6.97
2023-02-01T21:55:00.566Z,6.80
2023-02-01T22:00:13.357Z,8.30
2023-02-01T22:05:41.969Z,11.90
2023-02-01T22:10:44.316Z,10.35
2023-02-01T22:16:34.775Z,9.80
2023-02-01T22:21:39.262Z,13.32
2023-02-01T22:27:14.125Z,6.85
2023-02-01T22:32:21.336Z,9.05
2023-02-01T22:37:24.779Z,7.90
2023-02-01T22:42:37.140Z,7.70
2023-02-01T22:47:44.869Z,9.15
2023-02-01T22:52:52.700Z,9.32
2023-02-01T22:57:55.868Z,4.57
2023-02-01T23:03:01.350Z,4.05
2023-02-01T23:08:06.382Z,5.95
2023-02-01T23:13:10.782Z,4.85
2023-02-01T23:18:29.325Z,6.75
2023-02-01T23:23:36.224Z,7.85
2023-02-01T23:29:25.755Z,5.72
2023-02-01T23:34:33.366Z,6.30
2023-02-01T23:39:35.972Z,8.97
2023-02-01T23:44:39.398Z,6.32
2023-02-01T23:49:48.310Z,6.18
2023-02-01T23:54:50.591Z,4.07
2023-02-01T23:59:52.875Z,4.25
